createdAt,value
2023-05-02T00:00:47.277Z,0.70
2023-05-02T00:03:19.178Z,0.70
2023-05-02T00:05:50.950Z,0.80
2023-05-02T00:08:22.775Z,0.93
2023-05-02T00:10:54.501Z,0.80
2023-05-02T00:13:26.241Z,0.93
2023-05-02T00:15:58.019Z,0.90
2023-05-02T00:18:29.828Z,0.80
2023-05-02T00:21:01.600Z,1.03
2023-05-02T00:23:33.392Z,0.70
2023-05-02T00:26:09.258Z,1.10
2023-05-02T00:28:42.759Z,1.30
2023-05-02T00:31:15.177Z,1.00
2023-05-02T00:33:47.301Z,1.10
2023-05-02T00:36:19.488Z,1.37
2023-05-02T00:38:51.451Z,1.87
2023-05-02T00:41:23.202Z,0.80
2023-05-02T00:43:55.077Z,0.77
2023-05-02T00:46:27.260Z,0.50
2023-05-02T00:48:59.129Z,0.30
2023-05-02T00:51:32.105Z,0.40
2023-05-02T00:54:03.917Z,0.60
2023-05-02T00:56:35.705Z,0.40
2023-05-02T00:59:08.808Z,0.57
2023-05-02T01:01:59.309Z,0.67
2023-05-02T01:05:03.802Z,1.00
2023-05-02T01:07:50.631Z,1.03
2023-05-02T01:10:40.782Z,1.10
2023-05-02T01:13:17.920Z,1.00
2023-05-02T01:15:51.773Z,1.07
2023-05-02T01:18:26.760Z,0.80
2023-05-02T01:21:01.374Z,0.80
2023-05-02T01:23:54.622Z,0.70
2023-05-02T01:26:45.871Z,0.60
2023-05-02T01:29:21.139Z,0.70
2023-05-02T01:31:53.001Z,0.67
2023-05-02T01:34:25.113Z,0.50
2023-05-02T01:36:57.615Z,0.70
2023-05-02T01:39:30.808Z,0.80
2023-05-02T01:42:03.631Z,0.60
2023-05-02T01:44:36.703Z,0.77
2023-05-02T01:47:08.544Z,0.80
2023-05-02T01:49:40.755Z,0.80
2023-05-02T01:52:13.428Z,1.00
2023-05-02T01:54:45.300Z,0.80
2023-05-02T01:57:17.104Z,0.70
2023-05-02T01:59:48.957Z,0.90
2023-05-02T02:02:21.018Z,0.77
2023-05-02T02:04:53.800Z,0.67
2023-05-02T02:07:25.573Z,0.50
2023-05-02T02:09:57.643Z,0.80
2023-05-02T02:12:32.572Z,0.70
2023-05-02T02:15:09.338Z,0.70
2023-05-02T02:17:43.726Z,0.73
2023-05-02T02:20:15.655Z,0.70
2023-05-02T02:22:47.367Z,0.60
2023-05-02T02:25:19.702Z,0.50
2023-05-02T02:27:52.190Z,0.70
2023-05-02T02:30:24.009Z,0.83
2023-05-02T02:32:55.836Z,0.73
2023-05-02T02:35:31.576Z,0.80
2023-05-02T02:38:31.794Z,0.80
2023-05-02T02:41:11.090Z,0.73
2023-05-02T02:44:06.134Z,0.80
2023-05-02T02:46:52.508Z,0.90
2023-05-02T02:49:30.373Z,0.70
2023-05-02T02:52:18.090Z,0.80
2023-05-02T02:55:00.959Z,0.90
2023-05-02T02:58:02.626Z,0.90
2023-05-02T03:00:34.574Z,1.00
2023-05-02T03:03:07.031Z,0.93
2023-05-02T03:05:38.821Z,0.70
2023-05-02T03:08:10.825Z,1.00
2023-05-02T03:10:42.530Z,0.90
2023-05-02T03:13:15.363Z,0.60
2023-05-02T03:15:54.137Z,1.10
2023-05-02T03:18:33.692Z,0.70
2023-05-02T03:21:05.598Z,1.30
2023-05-02T03:23:37.523Z,0.90
2023-05-02T03:26:09.421Z,0.93
2023-05-02T03:28:42.146Z,1.10
2023-05-02T03:31:14.927Z,1.00
2023-05-02T03:33:46.884Z,1.10
2023-05-02T03:36:18.863Z,0.80
2023-05-02T03:38:51.005Z,0.87
2023-05-02T03:41:24.932Z,1.10
2023-05-02T03:44:03.788Z,1.20
2023-05-02T03:46:36.612Z,1.10
2023-05-02T03:49:13.825Z,1.00
2023-05-02T03:51:48.971Z,1.30
2023-05-02T03:54:26.116Z,1.00
2023-05-02T03:56:59.602Z,1.17
2023-05-02T03:59:35.479Z,1.00
2023-05-02T04:02:15.809Z,1.10
2023-05-02T04:04:52.214Z,1.13
2023-05-02T04:07:27.130Z,1.27
2023-05-02T04:10:04.712Z,1.10
2023-05-02T04:12:41.141Z,1.17
2023-05-02T04:15:13.532Z,0.70
2023-05-02T04:17:46.277Z,1.20
2023-05-02T04:20:18.877Z,1.13
2023-05-02T04:25:54.195Z,0.83
2023-05-02T04:28:29.738Z,1.10
2023-05-02T04:31:03.320Z,1.40
2023-05-02T04:33:35.721Z,0.80
2023-05-02T04:36:08.833Z,1.23
2023-05-02T04:38:40.925Z,1.10
2023-05-02T04:41:13.411Z,1.00
2023-05-02T04:43:49.745Z,0.80
2023-05-02T04:46:22.056Z,1.40
2023-05-02T04:48:54.285Z,1.30
2023-05-02T04:51:27.046Z,1.30
2023-05-02T04:53:59.271Z,1.30
2023-05-02T04:56:32.178Z,1.17
2023-05-02T04:59:04.479Z,1.40
2023-05-02T05:01:37.691Z,0.83
2023-05-02T05:04:10.166Z,1.30
2023-05-02T05:06:42.693Z,1.20
2023-05-02T05:09:15.428Z,1.40
2023-05-02T05:11:47.475Z,1.10
2023-05-02T05:14:20.457Z,1.20
2023-05-02T05:16:56.143Z,1.10
2023-05-02T05:19:28.990Z,1.27
2023-05-02T05:22:01.804Z,0.97
2023-05-02T05:24:34.074Z,1.30
2023-05-02T05:27:06.255Z,1.10
2023-05-02T05:29:38.403Z,1.27
2023-05-02T05:32:10.896Z,1.27
2023-05-02T05:34:43.706Z,1.00
2023-05-02T05:37:16.273Z,1.30
2023-05-02T05:39:51.653Z,1.20
2023-05-02T05:42:23.946Z,1.17
2023-05-02T05:44:59.718Z,1.30
2023-05-02T05:47:32.463Z,1.20
2023-05-02T05:50:05.344Z,1.17
2023-05-02T05:52:37.639Z,1.20
2023-05-02T05:55:09.874Z,0.93
2023-05-02T05:57:42.397Z,0.90
2023-05-02T06:00:15.558Z,1.00
2023-05-02T06:02:54.462Z,1.07
2023-05-02T06:05:32.475Z,1.37
2023-05-02T06:08:04.630Z,1.20
2023-05-02T06:10:37.402Z,1.03
2023-05-02T06:13:09.526Z,0.87
2023-05-02T06:15:45.160Z,1.30
2023-05-02T06:18:17.370Z,0.93
2023-05-02T06:20:49.128Z,0.93
2023-05-02T06:23:21.173Z,0.90
2023-05-02T06:25:53.670Z,1.30
2023-05-02T06:28:25.775Z,1.57
2023-05-02T06:31:01.858Z,1.53
2023-05-02T06:33:34.063Z,1.20
2023-05-02T06:36:06.220Z,1.30
2023-05-02T06:38:38.096Z,1.53
2023-05-02T06:41:17.311Z,1.63
2023-05-02T06:43:49.827Z,1.33
2023-05-02T06:46:22.124Z,1.20
2023-05-02T06:48:53.938Z,1.37
2023-05-02T06:51:26.264Z,1.13
2023-05-02T06:53:58.250Z,1.40
2023-05-02T06:56:30.282Z,1.20
2023-05-02T06:59:02.293Z,1.03
2023-05-02T07:01:34.514Z,1.17
2023-05-02T07:04:06.479Z,1.27
2023-05-02T07:06:38.431Z,1.37
2023-05-02T07:09:10.321Z,1.50
2023-05-02T07:11:42.861Z,1.13
2023-05-02T07:14:17.327Z,1.10
2023-05-02T07:16:49.121Z,1.20
2023-05-02T07:19:21.058Z,1.33
2023-05-02T07:21:53.157Z,1.40
2023-05-02T07:24:24.902Z,1.10
2023-05-02T07:26:56.622Z,1.20
2023-05-02T07:29:28.331Z,1.40
2023-05-02T07:32:00.476Z,1.50
2023-05-02T07:34:32.572Z,1.20
2023-05-02T07:37:04.415Z,1.30
2023-05-02T07:39:36.254Z,1.50
2023-05-02T07:42:09.272Z,1.83
2023-05-02T07:44:41.658Z,1.50
2023-05-02T07:47:13.413Z,1.60
2023-05-02T07:49:45.141Z,1.33
2023-05-02T07:52:16.892Z,1.23
2023-05-02T07:54:49.648Z,1.77
2023-05-02T07:57:21.761Z,1.50
2023-05-02T07:59:53.562Z,1.43
2023-05-02T08:02:26.235Z,1.70
2023-05-02T08:04:58.301Z,1.33
2023-05-02T08:07:30.270Z,1.57
2023-05-02T08:10:02.426Z,1.33
2023-05-02T08:12:38.686Z,1.47
2023-05-02T08:15:12.132Z,1.30
2023-05-02T08:17:44.169Z,1.20
2023-05-02T08:20:16.503Z,1.30
2023-05-02T08:22:48.707Z,1.40
2023-05-02T08:25:20.674Z,1.60
2023-05-02T08:27:52.643Z,1.40
2023-05-02T08:30:24.747Z,1.23
2023-05-02T08:32:56.939Z,1.40
2023-05-02T08:35:31.764Z,1.23
2023-05-02T08:38:04.027Z,1.50
2023-05-02T08:40:42.113Z,1.50
2023-05-02T08:43:16.848Z,1.40
2023-05-02T08:45:50.944Z,1.23
2023-05-02T08:48:23.017Z,1.10
2023-05-02T08:50:54.757Z,1.33
2023-05-02T08:53:26.631Z,1.40
2023-05-02T08:55:59.977Z,1.47
2023-05-02T08:58:32.059Z,1.47
2023-05-02T09:01:05.286Z,1.60
2023-05-02T09:03:37.099Z,1.50
2023-05-02T09:06:09.652Z,1.70
2023-05-02T09:08:42.845Z,1.67
2023-05-02T09:11:15.070Z,1.43
2023-05-02T09:13:47.970Z,1.37
2023-05-02T09:16:24.146Z,1.40
2023-05-02T09:18:58.080Z,1.43
2023-05-02T09:21:37.444Z,1.10
2023-05-02T09:24:18.119Z,1.40
2023-05-02T09:27:01.094Z,1.33
2023-05-02T09:29:37.946Z,1.20
2023-05-02T09:32:10.129Z,1.67
2023-05-02T09:34:42.362Z,1.57
2023-05-02T09:37:33.969Z,1.30
2023-05-02T09:40:09.524Z,1.30
2023-05-02T09:42:42.025Z,1.30
2023-05-02T09:45:20.976Z,1.40
2023-05-02T09:47:53.146Z,1.20
2023-05-02T09:50:38.023Z,1.40
2023-05-02T09:53:11.147Z,1.17
2023-05-02T09:55:43.449Z,1.30
2023-05-02T09:58:24.569Z,1.47
2023-05-02T10:00:56.504Z,1.20
2023-05-02T10:03:28.862Z,1.27
2023-05-02T10:06:00.788Z,1.27
2023-05-02T10:08:34.147Z,1.57
2023-05-02T10:11:08.160Z,1.17
2023-05-02T10:13:40.208Z,1.17
2023-05-02T10:16:13.005Z,1.53
2023-05-02T10:19:19.017Z,1.30
2023-05-02T10:21:51.151Z,1.07
2023-05-02T10:24:22.966Z,0.93
2023-05-02T10:26:54.872Z,1.30
2023-05-02T10:29:30.042Z,1.13
2023-05-02T10:32:02.080Z,1.20
2023-05-02T10:34:34.200Z,1.17
2023-05-02T10:37:06.015Z,1.20
2023-05-02T10:39:38.081Z,1.00
2023-05-02T10:42:10.671Z,1.13
2023-05-02T10:44:42.460Z,1.20
2023-05-02T10:47:21.800Z,1.13
2023-05-02T10:50:00.345Z,1.10
2023-05-02T10:52:36.834Z,1.83
2023-05-02T10:55:19.942Z,1.00
2023-05-02T10:58:24.457Z,1.20
2023-05-02T11:00:56.223Z,1.20
2023-05-02T11:03:54.397Z,1.00
2023-05-02T11:06:30.082Z,1.00
2023-05-02T11:09:15.159Z,1.00
2023-05-02T11:11:54.403Z,0.93
2023-05-02T11:14:26.095Z,1.10
2023-05-02T11:17:00.772Z,1.20
2023-05-02T11:19:38.799Z,1.20
2023-05-02T11:22:20.481Z,1.30
2023-05-02T11:24:52.188Z,1.10
2023-05-02T11:27:34.134Z,1.20
2023-05-02T11:30:10.099Z,1.00
2023-05-02T11:32:49.459Z,1.17
2023-05-02T11:35:26.864Z,0.80
2023-05-02T11:37:58.523Z,1.07
2023-05-02T11:40:31.004Z,1.10
2023-05-02T11:43:12.876Z,1.17
2023-05-02T11:45:44.960Z,1.30
2023-05-02T11:48:19.227Z,1.20
2023-05-02T11:50:52.440Z,1.10
2023-05-02T11:53:26.263Z,1.20
2023-05-02T11:55:58.710Z,0.93
2023-05-02T11:58:35.100Z,1.20
2023-05-02T12:01:14.316Z,1.00
2023-05-02T12:03:48.610Z,0.90
2023-05-02T12:06:21.013Z,1.30
2023-05-02T12:08:55.651Z,0.90
2023-05-02T12:11:27.843Z,1.00
2023-05-02T12:14:00.185Z,1.20
2023-05-02T12:16:32.104Z,1.10
2023-05-02T12:19:04.830Z,0.97
2023-05-02T12:21:36.935Z,1.10
2023-05-02T12:24:10.980Z,0.90
2023-05-02T12:26:43.526Z,1.10
2023-05-02T12:29:16.234Z,1.10
2023-05-02T12:31:51.821Z,1.10
2023-05-02T12:34:34.118Z,1.87
2023-05-02T12:37:07.114Z,1.00
2023-05-02T12:39:40.430Z,1.10
2023-05-02T12:42:14.948Z,0.97
2023-05-02T12:44:47.678Z,1.67
2023-05-02T12:47:21.472Z,1.10
2023-05-02T12:49:58.133Z,1.00
2023-05-02T12:52:57.639Z,0.97
2023-05-02T12:55:29.820Z,0.93
2023-05-02T12:58:13.422Z,0.97
2023-05-02T13:00:48.563Z,1.23
2023-05-02T13:03:21.657Z,1.13
2023-05-02T13:05:57.414Z,1.23
2023-05-02T13:08:29.540Z,0.63
2023-05-02T13:11:02.887Z,0.93
2023-05-02T13:13:35.622Z,1.00
2023-05-02T13:16:08.843Z,1.00
2023-05-02T13:18:40.923Z,0.77
2023-05-02T13:21:12.985Z,0.87
2023-05-02T13:23:47.519Z,0.97
2023-05-02T13:26:20.005Z,1.00
2023-05-02T13:28:51.792Z,0.75
2023-05-02T13:31:23.724Z,0.70
2023-05-02T13:33:55.839Z,0.90
2023-05-02T13:36:27.833Z,0.88
2023-05-02T13:38:59.616Z,0.90
2023-05-02T13:41:32.016Z,0.80
2023-05-02T13:44:04.232Z,0.80
2023-05-02T13:46:37.827Z,1.00
2023-05-02T13:49:09.914Z,0.88
2023-05-02T13:51:42.286Z,0.90
2023-05-02T13:54:14.191Z,0.95
2023-05-02T13:56:49.381Z,0.90
2023-05-02T13:59:21.310Z,0.80
2023-05-02T14:01:53.264Z,0.70
2023-05-02T14:04:25.069Z,0.80
2023-05-02T14:06:56.906Z,0.80
2023-05-02T14:09:28.776Z,0.80
2023-05-02T14:12:02.014Z,0.90
2023-05-02T14:14:36.103Z,0.70
2023-05-02T14:17:08.955Z,0.83
2023-05-02T14:19:40.910Z,0.97
2023-05-02T14:22:13.152Z,0.80
2023-05-02T14:24:45.696Z,0.60
2023-05-02T14:27:20.759Z,1.00
2023-05-02T14:29:52.715Z,0.87
2023-05-02T14:32:24.784Z,0.85
2023-05-02T14:34:57.104Z,1.10
2023-05-02T14:37:29.755Z,0.82
2023-05-02T14:40:02.018Z,0.77
2023-05-02T14:42:34.043Z,0.77
2023-05-02T14:45:07.604Z,0.90
2023-05-02T14:47:39.431Z,0.73
2023-05-02T14:50:11.329Z,0.80
2023-05-02T14:52:46.255Z,0.90
2023-05-02T14:55:18.048Z,1.00
2023-05-02T14:57:50.493Z,0.90
2023-05-02T15:00:22.692Z,0.83
2023-05-02T15:02:54.694Z,0.70
2023-05-02T15:05:26.675Z,0.70
2023-05-02T15:07:58.620Z,0.90
2023-05-02T15:10:30.474Z,0.73
2023-05-02T15:13:03.893Z,0.90
2023-05-02T15:15:35.692Z,0.73
2023-05-02T15:18:08.130Z,1.00
2023-05-02T15:20:40.007Z,0.80
2023-05-02T15:23:11.716Z,0.90
2023-05-02T15:25:43.480Z,0.90
2023-05-02T15:28:15.584Z,1.00
2023-05-02T15:30:49.185Z,0.88
2023-05-02T15:33:20.947Z,0.88
2023-05-02T15:35:58.308Z,0.80
2023-05-02T15:38:30.851Z,0.65
2023-05-02T15:41:03.991Z,0.93
2023-05-02T15:43:36.405Z,1.00
2023-05-02T15:46:08.569Z,1.00
2023-05-02T15:48:40.515Z,0.80
2023-05-02T15:51:13.720Z,0.90
2023-05-02T15:53:49.827Z,1.00
2023-05-02T15:56:21.718Z,1.00
2023-05-02T15:58:59.005Z,0.83
2023-05-02T16:01:30.820Z,1.00
2023-05-02T16:04:02.796Z,0.73
2023-05-02T16:06:34.725Z,0.90
2023-05-02T16:09:06.759Z,0.93
2023-05-02T16:11:38.739Z,0.68
2023-05-02T16:14:10.892Z,0.65
2023-05-02T16:16:42.707Z,0.85
2023-05-02T16:19:14.718Z,1.00
2023-05-02T16:21:46.429Z,0.87
2023-05-02T16:24:18.369Z,0.60
2023-05-02T16:26:50.511Z,0.80
2023-05-02T16:29:23.104Z,1.03
2023-05-02T16:31:55.007Z,0.90
2023-05-02T16:34:26.935Z,1.10
2023-05-02T16:37:00.318Z,0.90
2023-05-02T16:39:33.843Z,0.70
2023-05-02T16:42:05.815Z,0.70
2023-05-02T16:44:38.416Z,0.70
2023-05-02T16:47:11.290Z,0.70
2023-05-02T16:49:43.134Z,0.90
2023-05-02T16:52:15.640Z,0.70
2023-05-02T16:54:48.641Z,0.70
2023-05-02T16:57:21.518Z,0.80
2023-05-02T16:59:53.554Z,0.73
2023-05-02T17:02:25.362Z,0.63
2023-05-02T17:04:57.322Z,0.60
2023-05-02T17:07:29.674Z,0.80
2023-05-02T17:10:02.005Z,0.93
2023-05-02T17:12:34.086Z,0.70
2023-05-02T17:15:07.815Z,0.60
2023-05-02T17:17:39.894Z,0.80
2023-05-02T17:20:12.932Z,0.73
2023-05-02T17:22:44.894Z,0.77
2023-05-02T17:25:17.373Z,0.77
2023-05-02T17:27:49.458Z,0.70
2023-05-02T17:30:22.157Z,0.93
2023-05-02T17:32:53.964Z,0.80
2023-05-02T17:35:26.413Z,0.80
2023-05-02T17:37:59.088Z,0.90
2023-05-02T17:40:31.370Z,0.70
2023-05-02T17:43:03.647Z,0.97
2023-05-02T17:45:36.696Z,0.70
2023-05-02T17:48:08.719Z,0.80
2023-05-02T17:50:40.618Z,1.00
2023-05-02T17:53:12.787Z,0.90
2023-05-02T17:55:45.041Z,0.70
2023-05-02T17:58:17.083Z,0.77
2023-05-02T18:00:48.964Z,0.70
2023-05-02T18:03:21.012Z,0.90
2023-05-02T18:05:52.988Z,1.00
2023-05-02T18:08:24.782Z,0.70
2023-05-02T18:10:57.060Z,0.70
2023-05-02T18:13:29.017Z,0.80
2023-05-02T18:16:05.277Z,0.90
2023-05-02T18:18:37.451Z,0.80
2023-05-02T18:21:12.185Z,0.93
2023-05-02T18:23:43.938Z,0.67
2023-05-02T18:26:15.794Z,0.90
2023-05-02T18:28:53.076Z,0.80
2023-05-02T18:31:25.146Z,0.70
2023-05-02T18:33:56.951Z,0.77
2023-05-02T18:36:29.607Z,0.97
2023-05-02T18:39:01.839Z,0.90
2023-05-02T18:41:33.704Z,0.70
2023-05-02T18:44:10.283Z,1.00
2023-05-02T18:46:42.276Z,0.80
2023-05-02T18:49:14.128Z,0.90
2023-05-02T18:51:45.928Z,0.90
2023-05-02T18:54:19.508Z,0.67
2023-05-02T18:56:51.820Z,0.70
2023-05-02T18:59:23.691Z,0.80
2023-05-02T19:01:56.289Z,0.70
2023-05-02T19:04:31.753Z,0.63
2023-05-02T19:07:03.819Z,0.70
2023-05-02T19:09:35.552Z,1.10
2023-05-02T19:12:07.544Z,0.90
2023-05-02T19:14:40.256Z,0.83
2023-05-02T19:17:12.134Z,1.37
2023-05-02T19:19:46.140Z,1.10
2023-05-02T19:22:23.043Z,0.90
2023-05-02T19:24:55.232Z,0.80
2023-05-02T19:27:27.481Z,0.80
2023-05-02T19:29:59.898Z,0.90
2023-05-02T19:32:31.807Z,1.57
2023-05-02T19:35:04.423Z,0.90
2023-05-02T19:37:36.683Z,0.67
2023-05-02T19:40:09.743Z,1.00
2023-05-02T19:42:41.557Z,0.97
2023-05-02T19:45:13.944Z,0.83
2023-05-02T19:47:46.122Z,1.10
2023-05-02T19:50:17.867Z,1.07
2023-05-02T19:52:50.526Z,0.93
2023-05-02T19:55:22.306Z,0.90
2023-05-02T19:57:54.428Z,1.10
2023-05-02T20:00:26.388Z,1.00
2023-05-02T20:02:58.779Z,0.80
2023-05-02T20:05:30.671Z,1.03
2023-05-02T20:08:02.954Z,1.00
2023-05-02T20:10:35.645Z,0.97
2023-05-02T20:13:07.461Z,1.10
2023-05-02T20:15:39.694Z,1.30
2023-05-02T20:18:12.164Z,0.90
2023-05-02T20:20:45.063Z,0.80
2023-05-02T20:23:17.509Z,1.10
2023-05-02T20:25:49.376Z,1.10
2023-05-02T20:28:21.586Z,0.97
2023-05-02T20:30:53.498Z,1.20
2023-05-02T20:33:41.234Z,1.20
2023-05-02T20:36:18.174Z,0.97
2023-05-02T20:38:50.651Z,0.90
2023-05-02T20:41:23.930Z,0.93
2023-05-02T20:43:57.300Z,1.03
2023-05-02T20:46:29.418Z,1.13
2023-05-02T20:49:02.243Z,1.10
2023-05-02T20:51:34.440Z,0.97
2023-05-02T20:54:06.591Z,1.10
2023-05-02T20:56:38.878Z,1.10
2023-05-02T20:59:11.713Z,1.00
2023-05-02T21:01:43.611Z,1.00
2023-05-02T21:04:15.657Z,1.23
2023-05-02T21:06:47.737Z,1.20
2023-05-02T21:09:20.163Z,1.10
2023-05-02T21:11:51.923Z,0.80
2023-05-02T21:14:24.316Z,0.90
2023-05-02T21:16:56.349Z,1.00
2023-05-02T21:19:28.681Z,1.00
2023-05-02T21:22:00.763Z,0.93
2023-05-02T21:24:33.404Z,1.00
2023-05-02T21:27:05.836Z,1.20
2023-05-02T21:29:38.194Z,1.10
2023-05-02T21:32:10.918Z,1.00
2023-05-02T21:34:43.452Z,1.00
2023-05-02T21:37:15.461Z,1.13
2023-05-02T21:39:47.683Z,1.20
2023-05-02T21:42:19.753Z,1.00
2023-05-02T21:44:51.923Z,0.80
2023-05-02T21:47:24.353Z,0.93
2023-05-02T21:49:57.286Z,0.90
2023-05-02T21:52:29.204Z,1.20
2023-05-02T21:55:01.208Z,1.03
2023-05-02T21:57:33.369Z,0.80
2023-05-02T22:00:06.300Z,1.10
2023-05-02T22:02:38.216Z,1.10
2023-05-02T22:05:11.573Z,0.83
2023-05-02T22:07:43.410Z,1.10
2023-05-02T22:10:15.431Z,1.10
2023-05-02T22:12:47.244Z,1.00
2023-05-02T22:15:19.143Z,1.17
2023-05-02T22:17:50.999Z,1.40
2023-05-02T22:20:24.844Z,1.00
2023-05-02T22:22:56.667Z,0.97
2023-05-02T22:25:29.219Z,1.00
2023-05-02T22:28:03.918Z,1.20
2023-05-02T22:30:36.239Z,1.00
2023-05-02T22:33:08.273Z,0.90
2023-05-02T22:35:40.409Z,1.07
2023-05-02T22:38:15.016Z,1.20
2023-05-02T22:40:46.964Z,0.87
2023-05-02T22:43:19.056Z,0.90
2023-05-02T22:45:52.131Z,1.10
2023-05-02T22:48:24.167Z,1.20
2023-05-02T22:50:56.290Z,1.10
2023-05-02T22:53:28.723Z,1.10
2023-05-02T22:56:00.983Z,1.20
2023-05-02T22:58:32.884Z,1.00
2023-05-02T23:01:04.742Z,1.10
2023-05-02T23:03:36.785Z,1.17
2023-05-02T23:06:09.384Z,1.00
2023-05-02T23:08:41.267Z,1.17
2023-05-02T23:11:13.234Z,0.93
2023-05-02T23:13:45.111Z,1.00
2023-05-02T23:16:17.228Z,1.20
2023-05-02T23:18:49.216Z,1.20
2023-05-02T23:21:20.970Z,1.00
2023-05-02T23:23:53.187Z,1.20
2023-05-02T23:26:26.503Z,0.97
2023-05-02T23:28:58.685Z,1.40
2023-05-02T23:31:30.636Z,1.10
2023-05-02T23:34:02.417Z,0.90
2023-05-02T23:36:35.201Z,1.17
2023-05-02T23:39:07.175Z,1.20
2023-05-02T23:41:39.531Z,1.00
2023-05-02T23:44:11.273Z,1.00
2023-05-02T23:46:43.009Z,0.70
2023-05-02T23:49:15.277Z,1.43
2023-05-02T23:51:47.429Z,1.17
2023-05-02T23:54:19.170Z,1.20
2023-05-02T23:56:51.760Z,1.00
2023-05-02T23:59:23.598Z,1.13
